sensor_id;sensor_type;location;lat;lon;timestamp;pressure;altitude;pressure_sealevel;temperature;humidity
59939;BME280;45801;51.810;19.444;2023-08-06T00:00:53;97973.87;;;18.61;90.69
59939;BME280;45801;51.810;19.444;2023-08-06T00:03:40;97942.36;;;18.57;91.20
59939;BME280;45801;51.810;19.444;2023-08-06T00:06:06;97934.77;;;18.53;91.24
59939;BME280;45801;51.810;19.444;2023-08-06T00:08:33;97918.67;;;18.48;91.36
59939;BME280;45801;51.810;19.444;2023-08-06T00:10:59;97897.63;;;18.43;92.06
59939;BME280;45801;51.810;19.444;2023-08-06T00:13:25;97869.30;;;18.39;92.29
59939;BME280;45801;51.810;19.444;2023-08-06T00:15:53;97841.34;;;18.33;92.51
59939;BME280;45801;51.810;19.444;2023-08-06T00:18:19;97811.96;;;18.29;93.05
59939;BME280;45801;51.810;19.444;2023-08-06T00:20:45;97792.32;;;18.26;93.04
59939;BME280;45801;51.810;19.444;2023-08-06T00:23:13;97794.30;;;18.24;93.05
59939;BME280;45801;51.810;19.444;2023-08-06T00:25:40;97821.77;;;18.24;92.55
59939;BME280;45801;51.810;19.444;2023-08-06T00:28:06;97847.45;;;18.25;92.56
59939;BME280;45801;51.810;19.444;2023-08-06T00:30:32;97871.56;;;18.26;92.44
59939;BME280;45801;51.810;19.444;2023-08-06T00:32:59;97902.72;;;18.28;92.19
59939;BME280;45801;51.810;19.444;2023-08-06T00:35:25;97917.39;;;18.31;92.04
59939;BME280;45801;51.810;19.444;2023-08-06T00:37:52;97910.64;;;18.34;92.01
59939;BME280;45801;51.810;19.444;2023-08-06T00:40:20;97918.41;;;18.37;92.25
59939;BME280;45801;51.810;19.444;2023-08-06T00:42:47;97922.81;;;18.41;91.82
59939;BME280;45801;51.810;19.444;2023-08-06T00:45:14;97926.70;;;18.43;91.67
59939;BME280;45801;51.810;19.444;2023-08-06T00:47:41;97928.45;;;18.45;91.48
59939;BME280;45801;51.810;19.444;2023-08-06T00:50:08;97926.30;;;18.46;91.59
59939;BME280;45801;51.810;19.444;2023-08-06T00:52:35;97914.25;;;18.46;91.72
59939;BME280;45801;51.810;19.444;2023-08-06T00:55:02;97913.03;;;18.45;91.74
59939;BME280;45801;51.810;19.444;2023-08-06T00:57:29;97908.25;;;18.44;91.70
59939;BME280;45801;51.810;19.444;2023-08-06T00:59:55;97912.16;;;18.43;91.84
59939;BME280;45801;51.810;19.444;2023-08-06T01:02:22;97908.95;;;18.43;91.64
59939;BME280;45801;51.810;19.444;2023-08-06T01:04:49;97889.27;;;18.44;92.04
59939;BME280;45801;51.810;19.444;2023-08-06T01:10:00;97862.15;;;18.44;91.92
59939;BME280;45801;51.810;19.444;2023-08-06T01:15:32;97883.04;;;18.47;91.95
59939;BME280;45801;51.810;19.444;2023-08-06T01:18:01;97875.40;;;18.48;91.65
59939;BME280;45801;51.810;19.444;2023-08-06T01:20:29;97881.42;;;18.49;91.64
59939;BME280;45801;51.810;19.444;2023-08-06T01:22:56;97876.10;;;18.50;91.54
59939;BME280;45801;51.810;19.444;2023-08-06T01:25:30;97858.17;;;18.51;91.58
59939;BME280;45801;51.810;19.444;2023-08-06T01:28:04;97858.40;;;18.47;91.51
59939;BME280;45801;51.810;19.444;2023-08-06T01:30:37;97866.20;;;18.47;91.42
59939;BME280;45801;51.810;19.444;2023-08-06T01:33:05;97863.72;;;18.47;91.41
59939;BME280;45801;51.810;19.444;2023-08-06T01:35:35;97859.48;;;18.46;91.52
59939;BME280;45801;51.810;19.444;2023-08-06T01:38:02;97844.39;;;18.47;91.73
59939;BME280;45801;51.810;19.444;2023-08-06T01:40:29;97817.11;;;18.45;92.12
59939;BME280;45801;51.810;19.444;2023-08-06T01:42:56;97810.73;;;18.46;91.92
59939;BME280;45801;51.810;19.444;2023-08-06T01:45:22;97812.84;;;18.47;91.81
59939;BME280;45801;51.810;19.444;2023-08-06T01:47:49;97825.06;;;18.47;91.62
59939;BME280;45801;51.810;19.444;2023-08-06T01:50:15;97840.10;;;18.50;91.66
59939;BME280;45801;51.810;19.444;2023-08-06T01:52:41;97840.08;;;18.51;91.67
59939;BME280;45801;51.810;19.444;2023-08-06T01:55:08;97847.52;;;18.52;91.62
59939;BME280;45801;51.810;19.444;2023-08-06T01:57:34;97857.80;;;18.53;91.60
59939;BME280;45801;51.810;19.444;2023-08-06T02:00:01;97875.02;;;18.53;91.52
59939;BME280;45801;51.810;19.444;2023-08-06T02:02:27;97874.99;;;18.55;91.59
59939;BME280;45801;51.810;19.444;2023-08-06T02:04:53;97852.83;;;18.54;91.67
59939;BME280;45801;51.810;19.444;2023-08-06T02:07:20;97817.38;;;18.53;91.88
59939;BME280;45801;51.810;19.444;2023-08-06T02:09:46;97757.15;;;18.49;92.29
59939;BME280;45801;51.810;19.444;2023-08-06T02:12:13;97709.30;;;18.48;91.93
59939;BME280;45801;51.810;19.444;2023-08-06T02:14:39;97672.91;;;18.50;91.94
59939;BME280;45801;51.810;19.444;2023-08-06T02:17:05;97597.75;;;18.50;92.00
59939;BME280;45801;51.810;19.444;2023-08-06T02:19:32;97553.26;;;18.49;91.91
59939;BME280;45801;51.810;19.444;2023-08-06T02:21:58;97517.13;;;18.47;91.92
59939;BME280;45801;51.810;19.444;2023-08-06T02:24:25;97475.30;;;18.46;91.68
59939;BME280;45801;51.810;19.444;2023-08-06T02:26:51;97439.54;;;18.44;91.90
59939;BME280;45801;51.810;19.444;2023-08-06T02:29:21;97430.18;;;18.41;91.87
59939;BME280;45801;51.810;19.444;2023-08-06T02:31:48;97417.54;;;18.34;93.09
59939;BME280;45801;51.810;19.444;2023-08-06T02:34:14;97409.07;;;18.32;92.60
59939;BME280;45801;51.810;19.444;2023-08-06T02:36:40;97407.86;;;18.31;92.63
59939;BME280;45801;51.810;19.444;2023-08-06T02:39:07;97389.41;;;18.31;92.81
59939;BME280;45801;51.810;19.444;2023-08-06T02:41:33;97380.88;;;18.32;92.52
59939;BME280;45801;51.810;19.444;2023-08-06T02:44:00;97376.10;;;18.32;92.68
59939;BME280;45801;51.810;19.444;2023-08-06T02:46:26;97385.65;;;18.33;92.63
59939;BME280;45801;51.810;19.444;2023-08-06T02:48:52;97419.64;;;18.35;92.81
59939;BME280;45801;51.810;19.444;2023-08-06T02:51:19;97460.73;;;18.38;92.77
59939;BME280;45801;51.810;19.444;2023-08-06T02:53:45;97517.04;;;18.42;92.50
59939;BME280;45801;51.810;19.444;2023-08-06T02:56:13;97565.92;;;18.45;92.53
59939;BME280;45801;51.810;19.444;2023-08-06T02:58:40;97590.20;;;18.46;92.52
59939;BME280;45801;51.810;19.444;2023-08-06T03:01:06;97600.63;;;18.47;92.38
59939;BME280;45801;51.810;19.444;2023-08-06T03:03:33;97617.45;;;18.48;92.60
59939;BME280;45801;51.810;19.444;2023-08-06T03:06:00;97606.98;;;18.49;92.96
59939;BME280;45801;51.810;19.444;2023-08-06T03:08:26;97577.36;;;18.49;92.88
59939;BME280;45801;51.810;19.444;2023-08-06T03:10:53;97562.45;;;18.50;92.86
59939;BME280;45801;51.810;19.444;2023-08-06T03:13:20;97554.83;;;18.50;92.90
59939;BME280;45801;51.810;19.444;2023-08-06T03:15:57;97538.16;;;18.51;92.92
59939;BME280;45801;51.810;19.444;2023-08-06T03:18:24;97524.33;;;18.51;92.99
59939;BME280;45801;51.810;19.444;2023-08-06T03:20:52;97531.59;;;18.52;92.98
59939;BME280;45801;51.810;19.444;2023-08-06T03:23:19;97519.88;;;18.53;92.81
59939;BME280;45801;51.810;19.444;2023-08-06T03:25:46;97508.16;;;18.53;92.84
59939;BME280;45801;51.810;19.444;2023-08-06T03:28:13;97502.48;;;18.54;92.94
59939;BME280;45801;51.810;19.444;2023-08-06T03:30:39;97501.58;;;18.55;93.37
59939;BME280;45801;51.810;19.444;2023-08-06T03:33:06;97508.67;;;18.55;93.49
59939;BME280;45801;51.810;19.444;2023-08-06T03:35:32;97510.27;;;18.55;93.33
59939;BME280;45801;51.810;19.444;2023-08-06T03:37:59;97511.65;;;18.57;93.40
59939;BME280;45801;51.810;19.444;2023-08-06T03:40:26;97513.77;;;18.57;93.16
59939;BME280;45801;51.810;19.444;2023-08-06T03:42:52;97507.23;;;18.57;93.42
59939;BME280;45801;51.810;19.444;2023-08-06T03:45:19;97504.74;;;18.57;93.55
59939;BME280;45801;51.810;19.444;2023-08-06T03:47:45;97501.91;;;18.57;93.58
59939;BME280;45801;51.810;19.444;2023-08-06T03:50:11;97503.34;;;18.56;93.73
59939;BME280;45801;51.810;19.444;2023-08-06T03:52:38;97504.39;;;18.56;93.70
59939;BME280;45801;51.810;19.444;2023-08-06T03:55:04;97505.82;;;18.56;94.08
59939;BME280;45801;51.810;19.444;2023-08-06T03:57:31;97507.79;;;18.55;94.11
59939;BME280;45801;51.810;19.444;2023-08-06T03:59:57;97507.45;;;18.53;94.49
59939;BME280;45801;51.810;19.444;2023-08-06T04:02:24;97505.17;;;18.51;94.67
59939;BME280;45801;51.810;19.444;2023-08-06T04:04:50;97508.91;;;18.50;94.91
59939;BME280;45801;51.810;19.444;2023-08-06T04:07:19;97511.20;;;18.51;94.52
59939;BME280;45801;51.810;19.444;2023-08-06T04:09:59;97511.01;;;18.53;94.25
59939;BME280;45801;51.810;19.444;2023-08-06T04:12:26;97505.48;;;18.55;94.69
59939;BME280;45801;51.810;19.444;2023-08-06T04:14:53;97505.98;;;18.57;94.60
59939;BME280;45801;51.810;19.444;2023-08-06T04:17:21;97502.91;;;18.60;94.40
59939;BME280;45801;51.810;19.444;2023-08-06T04:19:52;97502.36;;;18.62;94.26
59939;BME280;45801;51.810;19.444;2023-08-06T04:22:20;97501.44;;;18.63;94.07
59939;BME280;45801;51.810;19.444;2023-08-06T04:24:47;97495.06;;;18.63;94.20
59939;BME280;45801;51.810;19.444;2023-08-06T04:27:14;97496.29;;;18.64;94.25
59939;BME280;45801;51.810;19.444;2023-08-06T04:29:41;97496.05;;;18.67;94.26
59939;BME280;45801;51.810;19.444;2023-08-06T04:32:09;97489.99;;;18.68;94.28
59939;BME280;45801;51.810;19.444;2023-08-06T04:34:36;97491.39;;;18.70;94.06
59939;BME280;45801;51.810;19.444;2023-08-06T04:37:03;97485.73;;;18.69;93.87
59939;BME280;45801;51.810;19.444;2023-08-06T04:39:30;97477.76;;;18.69;93.93
59939;BME280;45801;51.810;19.444;2023-08-06T04:41:56;97481.11;;;18.70;93.86
59939;BME280;45801;51.810;19.444;2023-08-06T04:44:26;97472.77;;;18.70;94.14
59939;BME280;45801;51.810;19.444;2023-08-06T04:46:53;97474.89;;;18.71;93.99
59939;BME280;45801;51.810;19.444;2023-08-06T04:49:22;97475.23;;;18.72;94.01
59939;BME280;45801;51.810;19.444;2023-08-06T04:51:49;97472.55;;;18.73;94.20
59939;BME280;45801;51.810;19.444;2023-08-06T04:54:15;97461.73;;;18.74;94.28
59939;BME280;45801;51.810;19.444;2023-08-06T04:56:41;97456.92;;;18.74;94.14
59939;BME280;45801;51.810;19.444;2023-08-06T04:59:08;97459.74;;;18.76;94.06
59939;BME280;45801;51.810;19.444;2023-08-06T05:01:34;97461.14;;;18.76;94.16
59939;BME280;45801;51.810;19.444;2023-08-06T05:04:01;97460.23;;;18.78;94.20
59939;BME280;45801;51.810;19.444;2023-08-06T05:06:27;97454.70;;;18.79;94.23
59939;BME280;45801;51.810;19.444;2023-08-06T05:08:53;97454.52;;;18.80;94.17
59939;BME280;45801;51.810;19.444;2023-08-06T05:11:20;97451.30;;;18.81;94.16
59939;BME280;45801;51.810;19.444;2023-08-06T05:13:46;97452.17;;;18.82;94.36
59939;BME280;45801;51.810;19.444;2023-08-06T05:16:13;97445.76;;;18.83;94.06
59939;BME280;45801;51.810;19.444;2023-08-06T05:18:39;97431.58;;;18.82;94.09
59939;BME280;45801;51.810;19.444;2023-08-06T05:21:05;97427.50;;;18.83;94.18
59939;BME280;45801;51.810;19.444;2023-08-06T05:23:32;97424.64;;;18.84;94.25
59939;BME280;45801;51.810;19.444;2023-08-06T05:25:58;97423.91;;;18.86;94.36
59939;BME280;45801;51.810;19.444;2023-08-06T05:28:25;97420.00;;;18.87;94.38
59939;BME280;45801;51.810;19.444;2023-08-06T05:30:51;97421.55;;;18.89;94.34
59939;BME280;45801;51.810;19.444;2023-08-06T05:33:17;97419.22;;;18.91;94.26
59939;BME280;45801;51.810;19.444;2023-08-06T05:35:44;97418.16;;;18.92;94.07
59939;BME280;45801;51.810;19.444;2023-08-06T05:38:10;97415.15;;;18.91;94.27
59939;BME280;45801;51.810;19.444;2023-08-06T05:40:37;97411.77;;;18.91;94.26
59939;BME280;45801;51.810;19.444;2023-08-06T05:43:03;97405.73;;;18.92;94.40
59939;BME280;45801;51.810;19.444;2023-08-06T05:45:29;97410.64;;;18.95;94.54
59939;BME280;45801;51.810;19.444;2023-08-06T05:47:56;97405.64;;;18.96;94.46
59939;BME280;45801;51.810;19.444;2023-08-06T05:50:24;97402.95;;;18.98;94.44
59939;BME280;45801;51.810;19.444;2023-08-06T05:52:51;97400.77;;;19.00;94.50
59939;BME280;45801;51.810;19.444;2023-08-06T05:55:19;97394.85;;;19.03;94.64
59939;BME280;45801;51.810;19.444;2023-08-06T05:57:46;97388.41;;;19.06;94.63
59939;BME280;45801;51.810;19.444;2023-08-06T06:00:12;97390.34;;;19.07;94.75
59939;BME280;45801;51.810;19.444;2023-08-06T06:02:39;97394.38;;;19.09;94.67
59939;BME280;45801;51.810;19.444;2023-08-06T06:05:06;97393.47;;;19.10;94.72
59939;BME280;45801;51.810;19.444;2023-08-06T06:07:32;97387.39;;;19.13;94.60
59939;BME280;45801;51.810;19.444;2023-08-06T06:09:59;97391.10;;;19.14;94.44
59939;BME280;45801;51.810;19.444;2023-08-06T06:12:25;97389.11;;;19.16;94.28
59939;BME280;45801;51.810;19.444;2023-08-06T06:14:52;97374.36;;;19.16;94.74
59939;BME280;45801;51.810;19.444;2023-08-06T06:17:18;97362.48;;;19.15;94.93
59939;BME280;45801;51.810;19.444;2023-08-06T06:19:45;97367.62;;;19.16;94.78
59939;BME280;45801;51.810;19.444;2023-08-06T06:22:11;97370.77;;;19.18;94.87
59939;BME280;45801;51.810;19.444;2023-08-06T06:24:38;97365.79;;;19.19;94.95
59939;BME280;45801;51.810;19.444;2023-08-06T06:27:04;97357.45;;;19.19;94.33
59939;BME280;45801;51.810;19.444;2023-08-06T06:29:31;97355.02;;;19.17;93.89
59939;BME280;45801;51.810;19.444;2023-08-06T06:31:57;97349.01;;;19.16;93.87
59939;BME280;45801;51.810;19.444;2023-08-06T06:34:24;97347.20;;;19.16;94.08
59939;BME280;45801;51.810;19.444;2023-08-06T06:36:52;97341.31;;;19.18;94.09
59939;BME280;45801;51.810;19.444;2023-08-06T06:39:18;97339.16;;;19.19;94.02
59939;BME280;45801;51.810;19.444;2023-08-06T06:41:45;97334.70;;;19.20;94.26
59939;BME280;45801;51.810;19.444;2023-08-06T06:44:11;97327.94;;;19.20;94.22
59939;BME280;45801;51.810;19.444;2023-08-06T06:46:38;97327.23;;;19.21;94.16
59939;BME280;45801;51.810;19.444;2023-08-06T06:49:04;97331.98;;;19.23;94.54
59939;BME280;45801;51.810;19.444;2023-08-06T06:51:30;97325.74;;;19.23;94.70
59939;BME280;45801;51.810;19.444;2023-08-06T06:53:58;97318.27;;;19.24;94.67
59939;BME280;45801;51.810;19.444;2023-08-06T06:56:24;97315.05;;;19.26;94.73
59939;BME280;45801;51.810;19.444;2023-08-06T06:58:51;97320.20;;;19.26;94.78
59939;BME280;45801;51.810;19.444;2023-08-06T07:01:17;97322.30;;;19.28;94.69
59939;BME280;45801;51.810;19.444;2023-08-06T07:03:44;97319.09;;;19.28;94.54
59939;BME280;45801;51.810;19.444;2023-08-06T07:06:10;97310.91;;;19.29;94.70
59939;BME280;45801;51.810;19.444;2023-08-06T07:08:38;97304.52;;;19.29;94.61
59939;BME280;45801;51.810;19.444;2023-08-06T07:11:06;97303.45;;;19.29;94.47
59939;BME280;45801;51.810;19.444;2023-08-06T07:13:34;97303.80;;;19.29;94.57
59939;BME280;45801;51.810;19.444;2023-08-06T07:16:00;97301.30;;;19.30;94.90
59939;BME280;45801;51.810;19.444;2023-08-06T07:18:30;97297.36;;;19.31;94.77
59939;BME280;45801;51.810;19.444;2023-08-06T07:20:56;97292.38;;;19.32;94.93
59939;BME280;45801;51.810;19.444;2023-08-06T07:23:25;97289.70;;;19.32;94.79
59939;BME280;45801;51.810;19.444;2023-08-06T07:25:51;97288.80;;;19.33;94.78
59939;BME280;45801;51.810;19.444;2023-08-06T07:28:18;97284.47;;;19.36;94.34
59939;BME280;45801;51.810;19.444;2023-08-06T07:30:45;97288.08;;;19.41;93.93
59939;BME280;45801;51.810;19.444;2023-08-06T07:33:12;97289.91;;;19.47;93.52
59939;BME280;45801;51.810;19.444;2023-08-06T07:35:38;97289.77;;;19.53;93.11
59939;BME280;45801;51.810;19.444;2023-08-06T07:38:04;97282.71;;;19.58;92.48
59939;BME280;45801;51.810;19.444;2023-08-06T07:40:31;97280.96;;;19.64;92.09
59939;BME280;45801;51.810;19.444;2023-08-06T07:42:58;97282.05;;;19.71;92.01
59939;BME280;45801;51.810;19.444;2023-08-06T07:45:24;97275.77;;;19.74;91.74
59939;BME280;45801;51.810;19.444;2023-08-06T07:47:52;97272.69;;;19.77;91.63
59939;BME280;45801;51.810;19.444;2023-08-06T07:50:19;97274.75;;;19.80;91.52
59939;BME280;45801;51.810;19.444;2023-08-06T07:52:45;97271.85;;;19.83;91.19
59939;BME280;45801;51.810;19.444;2023-08-06T07:55:12;97265.89;;;19.86;90.87
59939;BME280;45801;51.810;19.444;2023-08-06T07:57:38;97260.30;;;19.90;90.77
59939;BME280;45801;51.810;19.444;2023-08-06T08:00:05;97258.61;;;19.93;90.70
59939;BME280;45801;51.810;19.444;2023-08-06T08:02:32;97254.81;;;19.95;90.73
59939;BME280;45801;51.810;19.444;2023-08-06T08:04:58;97252.29;;;19.97;90.77
59939;BME280;45801;51.810;19.444;2023-08-06T08:07:25;97249.41;;;19.99;90.83
59939;BME280;45801;51.810;19.444;2023-08-06T08:09:53;97254.73;;;19.98;91.05
59939;BME280;45801;51.810;19.444;2023-08-06T08:12:20;97253.92;;;19.96;91.41
59939;BME280;45801;51.810;19.444;2023-08-06T08:14:46;97254.16;;;19.93;91.70
59939;BME280;45801;51.810;19.444;2023-08-06T08:17:12;97257.60;;;19.91;92.01
59939;BME280;45801;51.810;19.444;2023-08-06T08:19:40;97256.95;;;19.88;92.10
59939;BME280;45801;51.810;19.444;2023-08-06T08:22:07;97259.29;;;19.87;92.22
59939;BME280;45801;51.810;19.444;2023-08-06T08:24:34;97258.95;;;19.87;92.42
59939;BME280;45801;51.810;19.444;2023-08-06T08:27:00;97260.23;;;19.85;92.27
59939;BME280;45801;51.810;19.444;2023-08-06T08:29:27;97255.45;;;19.85;92.43
59939;BME280;45801;51.810;19.444;2023-08-06T08:31:53;97250.12;;;19.85;92.82
59939;BME280;45801;51.810;19.444;2023-08-06T08:34:19;97248.73;;;19.84;92.98
59939;BME280;45801;51.810;19.444;2023-08-06T08:36:46;97246.41;;;19.84;93.51
59939;BME280;45801;51.810;19.444;2023-08-06T08:39:13;97246.61;;;19.83;93.48
59939;BME280;45801;51.810;19.444;2023-08-06T08:41:40;97239.01;;;19.82;93.58
59939;BME280;45801;51.810;19.444;2023-08-06T08:44:09;97228.57;;;19.80;93.16
59939;BME280;45801;51.810;19.444;2023-08-06T08:46:38;97223.11;;;19.78;93.22
59939;BME280;45801;51.810;19.444;2023-08-06T08:49:05;97223.83;;;19.77;93.55
59939;BME280;45801;51.810;19.444;2023-08-06T08:51:34;97218.31;;;19.77;93.80
59939;BME280;45801;51.810;19.444;2023-08-06T08:54:07;97213.88;;;19.77;94.21
59939;BME280;45801;51.810;19.444;2023-08-06T08:56:35;97211.35;;;19.79;94.25
59939;BME280;45801;51.810;19.444;2023-08-06T08:59:01;97200.30;;;19.82;94.57
59939;BME280;45801;51.810;19.444;2023-08-06T09:01:28;97192.44;;;19.83;94.82
59939;BME280;45801;51.810;19.444;2023-08-06T09:03:55;97195.41;;;19.85;94.65
59939;BME280;45801;51.810;19.444;2023-08-06T09:06:25;97192.88;;;19.86;94.89
59939;BME280;45801;51.810;19.444;2023-08-06T09:09:08;97189.13;;;19.87;95.27
59939;BME280;45801;51.810;19.444;2023-08-06T09:11:39;97183.62;;;19.87;95.33
59939;BME280;45801;51.810;19.444;2023-08-06T09:14:09;97175.63;;;19.87;95.36
59939;BME280;45801;51.810;19.444;2023-08-06T09:16:35;97173.81;;;19.88;94.97
59939;BME280;45801;51.810;19.444;2023-08-06T09:19:11;97169.69;;;19.89;94.82
59939;BME280;45801;51.810;19.444;2023-08-06T09:21:39;97165.36;;;19.92;94.69
59939;BME280;45801;51.810;19.444;2023-08-06T09:24:12;97161.51;;;19.97;94.95
59939;BME280;45801;51.810;19.444;2023-08-06T09:26:40;97159.77;;;20.02;94.91
59939;BME280;45801;51.810;19.444;2023-08-06T09:29:08;97166.54;;;20.08;94.77
59939;BME280;45801;51.810;19.444;2023-08-06T09:31:49;97163.73;;;20.12;94.57
59939;BME280;45801;51.810;19.444;2023-08-06T09:34:20;97160.60;;;20.16;94.53
59939;BME280;45801;51.810;19.444;2023-08-06T09:36:49;97157.16;;;20.19;94.69
59939;BME280;45801;51.810;19.444;2023-08-06T09:39:24;97149.51;;;20.19;94.43
59939;BME280;45801;51.810;19.444;2023-08-06T09:41:56;97145.90;;;20.21;93.87
59939;BME280;45801;51.810;19.444;2023-08-06T09:44:24;97143.00;;;20.23;93.85
59939;BME280;45801;51.810;19.444;2023-08-06T09:46:53;97142.09;;;20.24;93.48
59939;BME280;45801;51.810;19.444;2023-08-06T09:49:21;97145.21;;;20.26;93.31
59939;BME280;45801;51.810;19.444;2023-08-06T09:51:48;97143.04;;;20.27;93.34
59939;BME280;45801;51.810;19.444;2023-08-06T09:54:18;97140.33;;;20.29;93.31
59939;BME280;45801;51.810;19.444;2023-08-06T09:56:45;97136.90;;;20.30;93.28
59939;BME280;45801;51.810;19.444;2023-08-06T09:59:12;97134.54;;;20.33;93.01
59939;BME280;45801;51.810;19.444;2023-08-06T10:01:39;97133.55;;;20.36;93.05
59939;BME280;45801;51.810;19.444;2023-08-06T10:04:06;97131.70;;;20.38;93.18
59939;BME280;45801;51.810;19.444;2023-08-06T10:06:36;97131.80;;;20.42;93.49
59939;BME280;45801;51.810;19.444;2023-08-06T10:09:04;97123.78;;;20.42;93.42
59939;BME280;45801;51.810;19.444;2023-08-06T10:11:31;97121.28;;;20.42;93.29
59939;BME280;45801;51.810;19.444;2023-08-06T10:14:08;97118.76;;;20.43;93.17
59939;BME280;45801;51.810;19.444;2023-08-06T10:16:36;97118.02;;;20.44;93.27
59939;BME280;45801;51.810;19.444;2023-08-06T10:19:05;97119.80;;;20.44;93.34
59939;BME280;45801;51.810;19.444;2023-08-06T10:21:33;97116.40;;;20.44;93.25
59939;BME280;45801;51.810;19.444;2023-08-06T10:23:59;97110.50;;;20.45;93.19
59939;BME280;45801;51.810;19.444;2023-08-06T10:26:29;97107.81;;;20.47;93.09
59939;BME280;45801;51.810;19.444;2023-08-06T10:28:56;97102.17;;;20.51;93.33
59939;BME280;45801;51.810;19.444;2023-08-06T10:31:53;97092.30;;;20.54;94.36
59939;BME280;45801;51.810;19.444;2023-08-06T10:34:20;97089.75;;;20.56;93.85
59939;BME280;45801;51.810;19.444;2023-08-06T10:36:47;97093.38;;;20.59;94.12
59939;BME280;45801;51.810;19.444;2023-08-06T10:39:14;97091.86;;;20.62;94.05
59939;BME280;45801;51.810;19.444;2023-08-06T10:41:42;97089.48;;;20.64;94.19
59939;BME280;45801;51.810;19.444;2023-08-06T10:44:11;97087.16;;;20.65;94.04
59939;BME280;45801;51.810;19.444;2023-08-06T10:46:37;97084.23;;;20.68;93.95
59939;BME280;45801;51.810;19.444;2023-08-06T10:49:37;97078.86;;;20.69;93.42
59939;BME280;45801;51.810;19.444;2023-08-06T10:52:04;97076.18;;;20.70;93.45
59939;BME280;45801;51.810;19.444;2023-08-06T10:54:30;97077.16;;;20.73;93.35
59939;BME280;45801;51.810;19.444;2023-08-06T10:56:57;97068.54;;;20.75;93.83
59939;BME280;45801;51.810;19.444;2023-08-06T10:59:23;97061.48;;;20.79;93.99
59939;BME280;45801;51.810;19.444;2023-08-06T11:01:49;97053.86;;;20.83;93.52
59939;BME280;45801;51.810;19.444;2023-08-06T11:04:16;97047.13;;;20.88;94.11
59939;BME280;45801;51.810;19.444;2023-08-06T11:06:43;97044.65;;;20.93;93.84
59939;BME280;45801;51.810;19.444;2023-08-06T11:09:09;97048.58;;;20.97;94.02
59939;BME280;45801;51.810;19.444;2023-08-06T11:11:37;97046.98;;;21.03;93.86
59939;BME280;45801;51.810;19.444;2023-08-06T11:14:03;97040.45;;;21.07;94.35
59939;BME280;45801;51.810;19.444;2023-08-06T11:16:30;97038.55;;;21.11;94.22
59939;BME280;45801;51.810;19.444;2023-08-06T11:18:57;97029.05;;;21.12;94.02
59939;BME280;45801;51.810;19.444;2023-08-06T11:21:26;97027.15;;;21.16;94.05
59939;BME280;45801;51.810;19.444;2023-08-06T11:23:53;97029.89;;;21.24;94.09
59939;BME280;45801;51.810;19.444;2023-08-06T11:26:20;97027.27;;;21.33;94.58
59939;BME280;45801;51.810;19.444;2023-08-06T11:28:47;97031.87;;;21.44;94.90
59939;BME280;45801;51.810;19.444;2023-08-06T11:31:19;97025.21;;;21.57;94.73
59939;BME280;45801;51.810;19.444;2023-08-06T11:33:45;97019.50;;;21.71;95.28
59939;BME280;45801;51.810;19.444;2023-08-06T11:36:12;97015.45;;;21.85;94.24
59939;BME280;45801;51.810;19.444;2023-08-06T11:38:38;97021.86;;;21.90;92.94
59939;BME280;45801;51.810;19.444;2023-08-06T11:41:06;97016.65;;;21.91;92.57
59939;BME280;45801;51.810;19.444;2023-08-06T11:43:33;97005.30;;;21.89;91.72
59939;BME280;45801;51.810;19.444;2023-08-06T11:45:59;96994.49;;;21.87;92.01
59939;BME280;45801;51.810;19.444;2023-08-06T11:48:26;97001.40;;;21.84;91.04
59939;BME280;45801;51.810;19.444;2023-08-06T11:50:56;97009.23;;;21.80;90.25
59939;BME280;45801;51.810;19.444;2023-08-06T11:53:27;97017.92;;;21.76;90.90
59939;BME280;45801;51.810;19.444;2023-08-06T11:55:55;97019.70;;;21.71;90.73
59939;BME280;45801;51.810;19.444;2023-08-06T11:58:21;97020.56;;;21.67;90.63
59939;BME280;45801;51.810;19.444;2023-08-06T12:00:48;97033.47;;;21.65;90.65
59939;BME280;45801;51.810;19.444;2023-08-06T12:03:19;97043.89;;;21.63;91.18
59939;BME280;45801;51.810;19.444;2023-08-06T12:05:46;97035.64;;;21.54;89.19
59939;BME280;45801;51.810;19.444;2023-08-06T12:08:13;97038.90;;;21.42;87.69
59939;BME280;45801;51.810;19.444;2023-08-06T12:10:39;97038.39;;;21.25;86.87
59939;BME280;45801;51.810;19.444;2023-08-06T12:13:06;97048.84;;;21.06;86.08
59939;BME280;45801;51.810;19.444;2023-08-06T12:15:32;97052.60;;;20.89;84.71
59939;BME280;45801;51.810;19.444;2023-08-06T12:17:59;97046.89;;;20.79;85.32
59939;BME280;45801;51.810;19.444;2023-08-06T12:20:25;97057.27;;;20.72;85.62
59939;BME280;45801;51.810;19.444;2023-08-06T12:22:53;97069.05;;;20.64;83.56
59939;BME280;45801;51.810;19.444;2023-08-06T12:25:20;97073.13;;;20.58;83.22
59939;BME280;45801;51.810;19.444;2023-08-06T12:27:48;97069.59;;;20.46;83.07
59939;BME280;45801;51.810;19.444;2023-08-06T12:30:14;97075.53;;;20.44;83.48
59939;BME280;45801;51.810;19.444;2023-08-06T12:32:41;97081.46;;;20.30;81.59
59939;BME280;45801;51.810;19.444;2023-08-06T12:35:08;97082.12;;;20.20;83.18
59939;BME280;45801;51.810;19.444;2023-08-06T12:37:35;97085.52;;;20.13;82.32
59939;BME280;45801;51.810;19.444;2023-08-06T12:40:03;97090.20;;;19.98;81.03
59939;BME280;45801;51.810;19.444;2023-08-06T12:42:29;97094.82;;;19.86;81.02
59939;BME280;45801;51.810;19.444;2023-08-06T12:44:56;97093.06;;;19.72;81.17
59939;BME280;45801;51.810;19.444;2023-08-06T12:47:22;97091.93;;;19.67;82.80
59939;BME280;45801;51.810;19.444;2023-08-06T12:49:49;97088.73;;;19.60;82.16
59939;BME280;45801;51.810;19.444;2023-08-06T12:52:16;97069.14;;;19.56;82.59
59939;BME280;45801;51.810;19.444;2023-08-06T12:54:42;97064.58;;;19.54;83.39
59939;BME280;45801;51.810;19.444;2023-08-06T12:57:09;97069.21;;;19.47;81.97